PWSweather.com
Personal Weather Stations
Station Observations
METEOC500
Santo Antonio, FunchalPT 2020

Santo AntonioFunchalPT 2020

Lat: 32.678227, Lon: -16.945054

Elevation: 1669.94751

Station Type: WH Series

Latest ConditionsUpdated 9:56:08 AM GMT Tuesday, Dec 10, 2019
Currently Today's Max Today's Min Today's Average
Temperature 61.2°F16.2°C 61.2°F16.2°C 54.7°F12.6°C 56.3°F13.5°C
Dew Point 55.6°F13.1°C 55.6°F13.1°C 45.5°F7.5°C 52.0°F11.1°C
Winds Calm Calm 6.5 mph -10.5 kmh - - 3.7 mph 6.0 kmh
Wind Gusts 4.9 mph7.9 kmh 10.1 mph16.3 kmh - -
Humidity 82% 91% 71% 86%
Pressure 30.42 in1030.1 mb 30.42 in1030.1 mb 30.37 in1028.4 mb -
Hour Temp Dew Point Humidity Winds Wind Gusts Pressure Precip Precip Rate Daily Precip Total
09:56 AM 61.2°F16.2°C 55.6°F13.1°C 82% Calm Calm 4.9 mph7.9 kmh 30.42 in1030.1 mb 0.00 in0.0 mm 0.00 in0.0 mm 0.00 in0.0 mm
09:41 AM 58.8°F14.9°C 53.6°F12.0°C 83% Calm Calm 4.9 mph7.9 kmh 30.41 in1029.8 mb 0.00 in0.0 mm 0.00 in0.0 mm 0.00 in0.0 mm
09:26 AM 57.0°F13.9°C 50.9°F10.5°C 80% Calm Calm 7.6 mph12.2 kmh 30.40 in1029.5 mb 0.00 in0.0 mm 0.00 in0.0 mm 0.00 in0.0 mm
09:10 AM 55.9°F13.3°C 49.1°F9.5°C 78% 3.1 mph NNW5.0 kmh NNW 7.6 mph12.2 kmh 30.40 in1029.5 mb 0.00 in0.0 mm 0.00 in0.0 mm 0.00 in0.0 mm
08:55 AM 55.4°F13.0°C 47.3°F8.5°C 74% 1.8 mph N2.9 kmh N 4.9 mph7.9 kmh 30.40 in1029.5 mb 0.00 in0.0 mm 0.00 in0.0 mm 0.00 in0.0 mm
08:40 AM 54.9°F12.7°C 46.8°F8.2°C 74% 3.1 mph NNW5.0 kmh NNW 7.6 mph12.2 kmh 30.40 in1029.5 mb 0.00 in0.0 mm 0.00 in0.0 mm 0.00 in0.0 mm
08:25 AM 54.7°F12.6°C 45.5°F7.5°C 71% 6.0 mph NNW9.7 kmh NNW 10.1 mph16.3 kmh 30.40 in1029.5 mb 0.00 in0.0 mm 0.00 in0.0 mm 0.00 in0.0 mm
08:10 AM 55.2°F12.9°C 46.0°F7.8°C 71% 4.5 mph NNW7.2 kmh NNW 10.1 mph16.3 kmh 30.39 in1029.1 mb 0.00 in0.0 mm 0.00 in0.0 mm 0.00 in0.0 mm
07:55 AM 55.6°F13.1°C 48.2°F9.0°C 76% 6.5 mph NNW10.5 kmh NNW 10.1 mph16.3 kmh 30.39 in1029.1 mb 0.00 in0.0 mm 0.00 in0.0 mm 0.00 in0.0 mm
07:40 AM 55.8°F13.2°C 49.6°F9.8°C 80% 5.4 mph NW8.7 kmh NW 10.1 mph16.3 kmh 30.40 in1029.5 mb 0.00 in0.0 mm 0.00 in0.0 mm 0.00 in0.0 mm
07:25 AM 55.6°F13.1°C 51.1°F10.6°C 85% 6.3 mph NW10.1 kmh NW 10.1 mph16.3 kmh 30.39 in1029.1 mb 0.00 in0.0 mm 0.00 in0.0 mm 0.00 in0.0 mm
07:10 AM 55.4°F13.0°C 52.0°F11.1°C 88% 6.0 mph NNW9.7 kmh NNW 10.1 mph16.3 kmh 30.39 in1029.1 mb 0.00 in0.0 mm 0.00 in0.0 mm 0.00 in0.0 mm
06:55 AM 55.6°F13.1°C 51.8°F11.0°C 87% 4.9 mph NNW7.9 kmh NNW 7.6 mph12.2 kmh 30.39 in1029.1 mb 0.00 in0.0 mm 0.00 in0.0 mm 0.00 in0.0 mm
06:40 AM 56.3°F13.5°C 53.1°F11.7°C 89% 4.5 mph NW7.2 kmh NW 7.6 mph12.2 kmh 30.38 in1028.8 mb 0.00 in0.0 mm 0.00 in0.0 mm 0.00 in0.0 mm
06:25 AM 56.5°F13.6°C 53.6°F12.0°C 90% 4.0 mph NW6.4 kmh NW 7.6 mph12.2 kmh 30.38 in1028.8 mb 0.00 in0.0 mm 0.00 in0.0 mm 0.00 in0.0 mm
06:10 AM 56.5°F13.6°C 53.2°F11.8°C 89% 5.4 mph N8.7 kmh N 7.6 mph12.2 kmh 30.37 in1028.4 mb 0.00 in0.0 mm 0.00 in0.0 mm 0.00 in0.0 mm
05:55 AM 55.9°F13.3°C 52.2°F11.2°C 87% 2.9 mph NNW4.7 kmh NNW 7.6 mph12.2 kmh 30.37 in1028.4 mb 0.00 in0.0 mm 0.00 in0.0 mm 0.00 in0.0 mm
05:40 AM 56.1°F13.4°C 52.3°F11.3°C 87% 3.8 mph NNW6.1 kmh NNW 7.6 mph12.2 kmh 30.38 in1028.8 mb 0.00 in0.0 mm 0.00 in0.0 mm 0.00 in0.0 mm
05:25 AM 56.5°F13.6°C 52.9°F11.6°C 88% 5.6 mph NNW9.0 kmh NNW 7.6 mph12.2 kmh 30.38 in1028.8 mb 0.00 in0.0 mm 0.00 in0.0 mm 0.00 in0.0 mm
05:10 AM 56.7°F13.7°C 53.8°F12.1°C 90% 4.5 mph NNW7.2 kmh NNW 7.6 mph12.2 kmh 30.38 in1028.8 mb 0.00 in0.0 mm 0.00 in0.0 mm 0.00 in0.0 mm
04:55 AM 56.8°F13.8°C 53.2°F11.8°C 88% 3.4 mph NW5.5 kmh NW 7.6 mph12.2 kmh 30.38 in1028.8 mb 0.00 in0.0 mm 0.00 in0.0 mm 0.00 in0.0 mm
04:40 AM 57.0°F13.9°C 53.8°F12.1°C 89% 4.7 mph NNW7.6 kmh NNW 7.6 mph12.2 kmh 30.38 in1028.8 mb 0.00 in0.0 mm 0.00 in0.0 mm 0.00 in0.0 mm
04:25 AM 56.5°F13.6°C 52.9°F11.6°C 88% 3.8 mph NW6.1 kmh NW 7.6 mph12.2 kmh 30.39 in1029.1 mb 0.00 in0.0 mm 0.00 in0.0 mm 0.00 in0.0 mm
04:09 AM 56.3°F13.5°C 52.5°F11.4°C 87% 6.5 mph NNW10.5 kmh NNW 10.1 mph16.3 kmh 30.38 in1028.8 mb 0.00 in0.0 mm 0.00 in0.0 mm 0.00 in0.0 mm
03:54 AM 56.3°F13.5°C 52.9°F11.6°C 88% 6.0 mph N9.7 kmh N 10.1 mph16.3 kmh 30.39 in1029.1 mb 0.00 in0.0 mm 0.00 in0.0 mm 0.00 in0.0 mm
03:39 AM 56.1°F13.4°C 52.3°F11.3°C 87% 4.7 mph NNW7.6 kmh NNW 7.6 mph12.2 kmh 30.39 in1029.1 mb 0.00 in0.0 mm 0.00 in0.0 mm 0.00 in0.0 mm
03:24 AM 56.1°F13.4°C 52.3°F11.3°C 87% 2.5 mph NNW4.0 kmh NNW 7.6 mph12.2 kmh 30.39 in1029.1 mb 0.00 in0.0 mm 0.00 in0.0 mm 0.00 in0.0 mm
03:09 AM 55.9°F13.3°C 51.8°F11.0°C 86% 4.5 mph NNW7.2 kmh NNW 7.6 mph12.2 kmh 30.38 in1028.8 mb 0.00 in0.0 mm 0.00 in0.0 mm 0.00 in0.0 mm
02:54 AM 55.8°F13.2°C 52.0°F11.1°C 87% 3.8 mph NW6.1 kmh NW 7.6 mph12.2 kmh 30.39 in1029.1 mb 0.00 in0.0 mm 0.00 in0.0 mm 0.00 in0.0 mm
02:39 AM 55.9°F13.3°C 52.2°F11.2°C 87% 2.9 mph NW4.7 kmh NW 7.6 mph12.2 kmh 30.39 in1029.1 mb 0.00 in0.0 mm 0.00 in0.0 mm 0.00 in0.0 mm
02:24 AM 55.9°F13.3°C 52.5°F11.4°C 88% 0.2 mph NW0.3 kmh NW 7.6 mph12.2 kmh 30.40 in1029.5 mb 0.00 in0.0 mm 0.00 in0.0 mm 0.00 in0.0 mm
02:09 AM 56.1°F13.4°C 52.9°F11.6°C 89% 2.5 mph NNW4.0 kmh NNW 7.6 mph12.2 kmh 30.40 in1029.5 mb 0.00 in0.0 mm 0.00 in0.0 mm 0.00 in0.0 mm
01:54 AM 56.1°F13.4°C 52.9°F11.6°C 89% 3.8 mph NNW6.1 kmh NNW 4.9 mph7.9 kmh 30.40 in1029.5 mb 0.00 in0.0 mm 0.00 in0.0 mm 0.00 in0.0 mm
01:39 AM 56.3°F13.5°C 53.1°F11.7°C 89% 2.5 mph NNW4.0 kmh NNW 7.6 mph12.2 kmh 30.40 in1029.5 mb 0.00 in0.0 mm 0.00 in0.0 mm 0.00 in0.0 mm
01:24 AM 56.3°F13.5°C 53.4°F11.9°C 90% 3.8 mph NW6.1 kmh NW 7.6 mph12.2 kmh 30.41 in1029.8 mb 0.00 in0.0 mm 0.00 in0.0 mm 0.00 in0.0 mm
01:09 AM 56.3°F13.5°C 53.4°F11.9°C 90% 4.5 mph NNW7.2 kmh NNW 7.6 mph12.2 kmh 30.41 in1029.8 mb 0.00 in0.0 mm 0.00 in0.0 mm 0.00 in0.0 mm
12:54 AM 56.3°F13.5°C 53.8°F12.1°C 91% 4.5 mph NW7.2 kmh NW 7.6 mph12.2 kmh 30.41 in1029.8 mb 0.00 in0.0 mm 0.00 in0.0 mm 0.00 in0.0 mm
12:39 AM 56.5°F13.6°C 54.0°F12.2°C 91% 1.6 mph NNW2.6 kmh NNW 7.6 mph12.2 kmh 30.42 in1030.1 mb 0.00 in0.0 mm 0.00 in0.0 mm 0.00 in0.0 mm
12:24 AM 56.8°F13.8°C 54.3°F12.4°C 91% 1.3 mph NW2.1 kmh NW 4.9 mph7.9 kmh 30.42 in1030.1 mb 0.00 in0.0 mm 0.00 in0.0 mm 0.00 in0.0 mm
12:09 AM 57.0°F13.9°C 54.5°F12.5°C 91% 2.2 mph N3.5 kmh N 4.9 mph7.9 kmh 30.42 in1030.1 mb 0.00 in0.0 mm 0.00 in0.0 mm 0.00 in0.0 mm